createdAt,value
2023-01-09T00:01:23.955Z,1.63
2023-01-09T00:03:52.084Z,1.27
2023-01-09T00:06:21.586Z,1.58
2023-01-09T00:08:49.433Z,1.23
2023-01-09T00:11:16.730Z,1.52
2023-01-09T00:13:43.631Z,1.48
2023-01-09T00:16:10.503Z,1.30
2023-01-09T00:18:37.405Z,1.20
2023-01-09T00:21:07.071Z,1.27
2023-01-09T00:23:36.629Z,1.55
2023-01-09T00:26:14.083Z,1.25
2023-01-09T00:28:41.229Z,1.10
2023-01-09T00:31:09.032Z,1.10
2023-01-09T00:33:42.480Z,1.10
2023-01-09T00:36:10.207Z,1.40
2023-01-09T00:38:37.547Z,1.40
2023-01-09T00:41:12.023Z,1.58
2023-01-09T00:43:46.637Z,1.30
2023-01-09T00:46:15.336Z,1.30
2023-01-09T00:48:45.130Z,1.35
2023-01-09T00:51:11.918Z,1.48
2023-01-09T00:53:41.665Z,1.52
2023-01-09T00:56:13.696Z,1.63
2023-01-09T00:58:42.615Z,1.63
2023-01-09T01:01:09.414Z,1.92
2023-01-09T01:03:36.285Z,1.80
2023-01-09T01:06:21.772Z,1.80
2023-01-09T01:08:48.644Z,1.70
2023-01-09T01:11:15.495Z,1.75
2023-01-09T01:13:42.254Z,1.67
2023-01-09T01:16:12.326Z,1.80
2023-01-09T01:18:40.188Z,1.50
2023-01-09T01:21:12.304Z,1.75
2023-01-09T01:23:39.622Z,1.70
2023-01-09T01:26:11.377Z,1.60
2023-01-09T01:28:38.251Z,1.60
2023-01-09T01:31:05.635Z,1.73
2023-01-09T01:33:34.324Z,1.95
2023-01-09T01:36:08.915Z,2.20
2023-01-09T01:38:37.197Z,1.67
2023-01-09T01:41:04.698Z,2.13
2023-01-09T01:43:56.605Z,1.75
2023-01-09T01:46:23.510Z,1.55
2023-01-09T01:48:56.050Z,1.77
2023-01-09T01:51:25.225Z,2.47
2023-01-09T01:53:55.957Z,2.08
2023-01-09T01:56:32.810Z,1.85
2023-01-09T01:59:03.677Z,2.08
2023-01-09T02:01:31.478Z,2.10
2023-01-09T02:04:01.643Z,1.88
2023-01-09T02:06:30.599Z,2.03
2023-01-09T02:08:57.725Z,2.00
2023-01-09T02:11:25.210Z,2.05
2023-01-09T02:13:52.694Z,2.17
2023-01-09T02:16:38.705Z,2.20
2023-01-09T02:19:14.339Z,1.92
2023-01-09T02:21:41.448Z,2.05
2023-01-09T02:24:25.093Z,2.42
2023-01-09T02:27:01.939Z,2.05
2023-01-09T02:30:07.265Z,1.85
2023-01-09T02:32:55.170Z,1.85
2023-01-09T02:35:39.706Z,2.35
2023-01-09T02:38:15.379Z,1.88
2023-01-09T02:41:03.717Z,1.55
2023-01-09T02:43:32.324Z,2.10
2023-01-09T02:46:00.526Z,1.90
2023-01-09T02:48:28.547Z,1.60
2023-01-09T02:51:07.707Z,1.95
2023-01-09T02:53:46.637Z,1.55
2023-01-09T02:56:28.629Z,1.80
2023-01-09T02:59:23.513Z,1.95
2023-01-09T03:02:22.696Z,1.75
2023-01-09T03:05:06.795Z,1.40
2023-01-09T03:07:40.303Z,1.92
2023-01-09T03:10:16.059Z,1.73
2023-01-09T03:12:44.925Z,1.65
2023-01-09T03:15:15.074Z,1.80
2023-01-09T03:17:47.057Z,2.65
2023-01-09T03:20:17.999Z,1.60
2023-01-09T03:22:55.433Z,1.73
2023-01-09T03:25:22.577Z,1.88
2023-01-09T03:27:56.252Z,1.80
2023-01-09T03:32:49.942Z,1.90
2023-01-09T03:35:16.558Z,1.40
2023-01-09T03:37:43.250Z,1.75
2023-01-09T03:40:10.794Z,1.45
2023-01-09T03:42:37.538Z,1.77
2023-01-09T03:45:05.037Z,1.90
2023-01-09T03:47:32.082Z,1.30
2023-01-09T03:49:59.243Z,1.60
2023-01-09T03:52:34.096Z,1.48
2023-01-09T03:55:02.951Z,1.30
2023-01-09T03:57:29.702Z,1.90
2023-01-09T03:59:56.514Z,1.60
2023-01-09T04:02:24.608Z,1.88
2023-01-09T04:04:52.684Z,1.30
2023-01-09T04:07:20.081Z,1.70
2023-01-09T04:09:51.387Z,2.10
2023-01-09T04:12:18.300Z,1.88
2023-01-09T04:14:44.957Z,1.40
2023-01-09T04:17:12.458Z,1.73
2023-01-09T04:19:39.171Z,1.45
2023-01-09T04:22:06.179Z,1.45
2023-01-09T04:24:33.065Z,1.60
2023-01-09T04:27:01.068Z,1.60
2023-01-09T04:29:27.771Z,1.23
2023-01-09T04:31:54.720Z,1.38
2023-01-09T04:34:25.661Z,1.80
2023-01-09T04:36:53.242Z,1.25
2023-01-09T04:39:19.934Z,1.75
2023-01-09T04:41:49.602Z,1.30
2023-01-09T04:44:28.728Z,1.70
2023-01-09T04:46:58.976Z,1.33
2023-01-09T04:49:26.098Z,1.50
2023-01-09T04:51:53.658Z,1.60
2023-01-09T04:54:20.957Z,1.80
2023-01-09T04:56:49.325Z,1.65
2023-01-09T04:59:16.204Z,1.77
2023-01-09T05:01:43.333Z,2.00
2023-01-09T05:04:11.229Z,1.70
2023-01-09T05:06:37.957Z,1.83
2023-01-09T05:09:04.715Z,1.63
2023-01-09T05:11:31.518Z,1.80
2023-01-09T05:13:58.345Z,1.92
2023-01-09T05:16:27.905Z,1.60
2023-01-09T05:18:57.171Z,1.30
2023-01-09T05:21:24.647Z,1.80
2023-01-09T05:23:51.753Z,1.70
2023-01-09T05:26:23.268Z,1.70
2023-01-09T05:28:56.374Z,2.00
2023-01-09T05:31:25.554Z,1.63
2023-01-09T05:33:53.019Z,1.45
2023-01-09T05:36:19.676Z,1.60
2023-01-09T05:38:46.322Z,1.70
2023-01-09T05:41:13.040Z,1.45
2023-01-09T05:43:39.992Z,1.15
2023-01-09T05:46:06.923Z,1.63
2023-01-09T05:48:33.848Z,2.10
2023-01-09T05:51:00.542Z,1.73
2023-01-09T05:53:27.139Z,1.75
2023-01-09T05:55:53.884Z,2.50
2023-01-09T05:58:21.178Z,1.85
2023-01-09T06:00:48.635Z,1.45
2023-01-09T06:03:15.332Z,1.48
2023-01-09T06:05:41.990Z,1.83
2023-01-09T06:08:09.093Z,1.50
2023-01-09T06:10:35.962Z,2.30
2023-01-09T06:13:02.932Z,2.35
2023-01-09T06:15:29.668Z,2.03
2023-01-09T06:17:56.286Z,1.80
2023-01-09T06:20:22.927Z,1.70
2023-01-09T06:22:52.291Z,1.55
2023-01-09T06:25:20.213Z,1.90
2023-01-09T06:27:47.102Z,2.13
2023-01-09T06:30:14.091Z,1.52
2023-01-09T06:32:40.891Z,2.22
2023-01-09T06:35:08.233Z,1.77
2023-01-09T06:37:35.133Z,1.67
2023-01-09T06:40:02.103Z,1.45
2023-01-09T06:42:28.857Z,1.50
2023-01-09T06:44:55.616Z,2.13
2023-01-09T06:47:22.357Z,2.22
2023-01-09T06:49:49.080Z,1.90
2023-01-09T06:52:15.789Z,1.70
2023-01-09T06:54:42.620Z,2.95
2023-01-09T06:57:10.713Z,1.80
2023-01-09T06:59:37.473Z,1.55
2023-01-09T07:02:04.222Z,1.50
2023-01-09T07:04:31.225Z,1.67
2023-01-09T07:06:57.885Z,1.80
2023-01-09T07:09:24.646Z,1.52
2023-01-09T07:11:51.319Z,2.85
2023-01-09T07:14:19.332Z,1.70
2023-01-09T07:16:45.962Z,1.67
2023-01-09T07:19:12.927Z,2.05
2023-01-09T07:21:39.669Z,2.00
2023-01-09T07:24:06.558Z,1.90
2023-01-09T07:26:33.627Z,2.25
2023-01-09T07:29:00.379Z,1.83
2023-01-09T07:31:27.129Z,1.85
2023-01-09T07:33:53.990Z,2.10
2023-01-09T07:36:20.827Z,2.85
2023-01-09T07:38:47.549Z,2.38
2023-01-09T07:41:14.423Z,2.47
2023-01-09T07:43:41.063Z,2.42
2023-01-09T07:46:07.852Z,2.55
2023-01-09T07:48:34.664Z,2.45
2023-01-09T07:51:01.366Z,3.30
2023-01-09T07:53:28.145Z,2.15
2023-01-09T07:55:54.995Z,2.58
2023-01-09T07:58:22.036Z,2.45
2023-01-09T08:00:51.214Z,2.35
2023-01-09T08:03:17.943Z,2.85
2023-01-09T08:05:45.987Z,2.65
2023-01-09T08:08:15.751Z,2.80
2023-01-09T08:10:42.770Z,2.85
2023-01-09T08:13:11.782Z,2.58
2023-01-09T08:15:38.731Z,2.35
2023-01-09T08:18:06.228Z,2.78
2023-01-09T08:20:33.204Z,2.45
2023-01-09T08:23:00.115Z,2.92
2023-01-09T08:25:27.039Z,2.55
2023-01-09T08:27:53.889Z,2.75
2023-01-09T08:30:23.655Z,2.60
2023-01-09T08:32:54.254Z,2.58
2023-01-09T08:35:23.775Z,3.42
2023-01-09T08:37:54.263Z,3.40
2023-01-09T08:40:23.828Z,3.30
2023-01-09T08:43:12.176Z,3.58
2023-01-09T08:46:00.155Z,4.07
2023-01-09T08:48:27.015Z,3.83
2023-01-09T08:50:54.309Z,3.65
2023-01-09T08:53:24.222Z,3.80
2023-01-09T08:55:51.868Z,3.60
2023-01-09T08:58:18.456Z,4.13
2023-01-09T09:00:45.231Z,4.50
2023-01-09T09:03:12.305Z,4.82
2023-01-09T09:05:39.154Z,4.10
2023-01-09T09:08:07.095Z,5.05
2023-01-09T09:10:33.980Z,4.47
2023-01-09T09:13:01.769Z,5.10
2023-01-09T09:15:29.590Z,5.78
2023-01-09T09:17:58.755Z,5.07
2023-01-09T09:20:28.572Z,5.00
2023-01-09T09:22:55.481Z,4.90
2023-01-09T09:25:23.085Z,4.78
2023-01-09T09:27:50.368Z,5.15
2023-01-09T09:30:19.085Z,5.97
2023-01-09T09:32:46.584Z,5.35
2023-01-09T09:35:13.511Z,5.18
2023-01-09T09:37:40.431Z,4.95
2023-01-09T09:40:18.700Z,4.93
2023-01-09T09:43:35.127Z,4.95
2023-01-09T09:46:23.200Z,6.55
2023-01-09T09:48:59.395Z,6.30
2023-01-09T09:51:31.397Z,5.63
2023-01-09T09:54:02.237Z,5.18
2023-01-09T09:56:34.693Z,4.85
2023-01-09T09:59:06.734Z,4.57
2023-01-09T10:01:41.082Z,4.45
2023-01-09T10:04:14.290Z,4.32
2023-01-09T10:06:44.611Z,4.43
2023-01-09T10:09:34.140Z,5.05
2023-01-09T10:12:30.614Z,4.75
2023-01-09T10:15:00.090Z,4.75
2023-01-09T10:17:44.314Z,4.78
2023-01-09T10:20:35.890Z,4.47
2023-01-09T10:23:02.462Z,4.68
2023-01-09T10:25:45.112Z,5.47
2023-01-09T10:28:33.734Z,4.88
2023-01-09T10:31:21.642Z,4.93
2023-01-09T10:34:22.994Z,4.90
2023-01-09T10:36:49.648Z,4.43
2023-01-09T10:39:24.768Z,4.10
2023-01-09T10:41:57.625Z,4.47
2023-01-09T10:44:38.745Z,4.77
2023-01-09T10:47:17.301Z,4.72
2023-01-09T10:49:45.888Z,4.68
2023-01-09T10:52:19.482Z,4.50
2023-01-09T10:54:55.843Z,5.00
2023-01-09T10:57:40.298Z,6.05
2023-01-09T11:00:19.280Z,5.03
2023-01-09T11:02:47.285Z,5.43
2023-01-09T11:05:24.748Z,5.03
2023-01-09T11:07:57.371Z,5.32
2023-01-09T11:10:47.276Z,5.22
2023-01-09T11:13:26.514Z,5.93
2023-01-09T11:16:17.761Z,6.00
2023-01-09T11:18:52.066Z,5.38
2023-01-09T11:21:32.833Z,6.05
2023-01-09T11:24:18.552Z,5.40
2023-01-09T11:26:50.445Z,5.22
2023-01-09T11:29:26.999Z,5.18
2023-01-09T11:31:58.873Z,5.13
2023-01-09T11:34:32.126Z,5.18
2023-01-09T11:37:09.726Z,5.28
2023-01-09T11:39:41.318Z,5.47
2023-01-09T11:42:20.007Z,5.75
2023-01-09T11:44:47.103Z,6.50
2023-01-09T11:47:39.205Z,4.68
2023-01-09T11:50:20.711Z,5.32
2023-01-09T11:53:13.373Z,4.90
2023-01-09T11:55:42.860Z,5.05
2023-01-09T11:58:16.733Z,4.88
2023-01-09T12:01:04.371Z,4.57
2023-01-09T12:03:34.010Z,5.28
2023-01-09T12:06:25.608Z,4.38
2023-01-09T12:09:02.356Z,4.63
2023-01-09T12:11:34.259Z,3.97
2023-01-09T12:14:24.042Z,3.72
2023-01-09T12:17:04.667Z,4.28
2023-01-09T12:19:59.090Z,5.07
2023-01-09T12:23:05.442Z,5.53
2023-01-09T12:25:35.035Z,5.60
2023-01-09T12:28:36.058Z,5.63
2023-01-09T12:31:58.201Z,5.97
2023-01-09T12:34:56.450Z,5.57
2023-01-09T12:37:43.590Z,5.18
2023-01-09T12:40:19.310Z,5.75
2023-01-09T12:42:58.508Z,5.25
2023-01-09T12:45:50.844Z,5.55
2023-01-09T12:48:35.311Z,6.57
2023-01-09T12:51:17.470Z,6.45
2023-01-09T12:53:51.404Z,6.03
2023-01-09T12:56:25.055Z,5.28
2023-01-09T12:59:00.524Z,4.80
2023-01-09T13:01:32.620Z,4.07
2023-01-09T13:04:24.346Z,3.47
2023-01-09T13:07:11.644Z,3.45
2023-01-09T13:10:07.829Z,2.80
2023-01-09T13:12:39.612Z,3.00
2023-01-09T13:15:27.995Z,3.10
2023-01-09T13:18:07.938Z,3.38
2023-01-09T13:20:39.683Z,3.53
2023-01-09T13:23:07.021Z,3.63
2023-01-09T13:25:44.056Z,3.60
2023-01-09T13:28:23.260Z,4.13
2023-01-09T13:31:24.123Z,4.07
2023-01-09T13:33:56.764Z,3.75
2023-01-09T13:36:33.131Z,3.60
2023-01-09T13:39:02.149Z,3.78
2023-01-09T13:41:48.556Z,4.25
2023-01-09T13:44:18.164Z,4.00
2023-01-09T13:46:47.694Z,3.67
2023-01-09T13:49:33.541Z,4.07
2023-01-09T13:52:05.137Z,3.97
2023-01-09T13:54:47.204Z,4.07
2023-01-09T13:57:19.933Z,5.25
2023-01-09T13:59:50.161Z,4.15
2023-01-09T14:02:35.315Z,3.60
2023-01-09T14:05:04.404Z,3.75
2023-01-09T14:07:33.820Z,3.92
2023-01-09T14:10:03.530Z,3.95
2023-01-09T14:12:41.599Z,3.30
2023-01-09T14:15:26.627Z,4.07
2023-01-09T14:18:24.680Z,4.50
2023-01-09T14:23:52.889Z,3.55
2023-01-09T14:26:41.562Z,3.47
2023-01-09T14:29:36.287Z,2.97
2023-01-09T14:32:29.789Z,2.80
2023-01-09T14:35:15.435Z,2.87
2023-01-09T14:37:43.551Z,2.75
2023-01-09T14:40:23.458Z,2.40
2023-01-09T14:42:54.743Z,1.92
2023-01-09T14:45:27.093Z,1.85
2023-01-09T14:48:03.181Z,1.75
2023-01-09T14:50:38.053Z,2.10
2023-01-09T14:53:12.433Z,1.27
2023-01-09T14:55:42.239Z,1.77
2023-01-09T14:58:12.876Z,1.42
2023-01-09T15:01:01.770Z,2.47
2023-01-09T15:03:46.635Z,1.80
2023-01-09T15:06:23.977Z,1.77
2023-01-09T15:09:02.353Z,1.65
2023-01-09T15:11:29.953Z,2.08
2023-01-09T15:14:00.171Z,2.53
2023-01-09T15:16:28.382Z,2.65
2023-01-09T15:19:02.270Z,2.90
2023-01-09T15:21:31.018Z,1.60
2023-01-09T15:24:28.645Z,1.95
2023-01-09T15:26:58.824Z,1.42
2023-01-09T15:29:26.771Z,1.70
2023-01-09T15:32:28.310Z,2.10
2023-01-09T15:34:56.842Z,1.83
2023-01-09T15:37:33.310Z,2.47
2023-01-09T15:40:05.234Z,1.92
2023-01-09T15:42:57.161Z,2.15
2023-01-09T15:45:41.529Z,1.90
2023-01-09T15:50:49.747Z,1.85
2023-01-09T15:53:20.087Z,2.25
2023-01-09T15:56:25.127Z,2.42
2023-01-09T15:58:55.603Z,3.47
2023-01-09T16:01:38.373Z,2.00
2023-01-09T16:04:12.563Z,2.72
2023-01-09T16:06:49.042Z,2.85
2023-01-09T16:09:17.320Z,3.13
2023-01-09T16:11:52.079Z,5.03
2023-01-09T16:14:41.893Z,2.53
2023-01-09T16:17:17.033Z,2.70
2023-01-09T16:19:50.149Z,2.35
2023-01-09T16:22:56.294Z,1.70
2023-01-09T16:25:34.938Z,2.38
2023-01-09T16:28:26.783Z,3.17
2023-01-09T16:30:57.143Z,4.07
2023-01-09T16:33:29.243Z,4.00
2023-01-09T16:35:58.371Z,3.97
2023-01-09T16:38:28.468Z,4.03
2023-01-09T16:41:24.013Z,3.40
2023-01-09T16:43:52.036Z,4.38
2023-01-09T16:46:21.032Z,3.30
2023-01-09T16:48:48.167Z,4.30
2023-01-09T16:51:22.811Z,4.35
2023-01-09T16:53:50.066Z,3.50
2023-01-09T16:56:23.629Z,3.97
2023-01-09T16:58:50.965Z,6.45
2023-01-09T17:01:18.200Z,8.73
2023-01-09T17:03:45.175Z,5.25
2023-01-09T17:06:32.264Z,4.03
2023-01-09T17:08:59.081Z,4.55
2023-01-09T17:11:31.988Z,3.00
2023-01-09T17:13:59.809Z,3.50
2023-01-09T17:16:28.027Z,3.70
2023-01-09T17:18:55.467Z,4.45
2023-01-09T17:21:25.080Z,2.78
2023-01-09T17:24:10.599Z,2.50
2023-01-09T17:26:57.610Z,4.88
2023-01-09T17:29:24.650Z,2.80
2023-01-09T17:31:51.323Z,3.10
2023-01-09T17:34:18.220Z,2.85
2023-01-09T17:36:45.332Z,2.95
2023-01-09T17:39:17.148Z,2.30
2023-01-09T17:41:44.300Z,2.45
2023-01-09T17:44:12.049Z,2.40
2023-01-09T17:46:43.952Z,2.65
2023-01-09T17:49:17.627Z,3.60
2023-01-09T17:51:44.584Z,2.70
2023-01-09T17:54:11.820Z,2.30
2023-01-09T17:56:42.599Z,3.03
2023-01-09T17:59:14.149Z,2.88
2023-01-09T18:01:41.909Z,3.97
2023-01-09T18:04:09.838Z,3.45
2023-01-09T18:06:37.129Z,3.22
2023-01-09T18:09:05.213Z,3.42
2023-01-09T18:11:32.167Z,3.28
2023-01-09T18:13:59.535Z,4.13
2023-01-09T18:16:28.646Z,3.38
2023-01-09T18:18:59.310Z,2.90
2023-01-09T18:21:28.040Z,3.72
2023-01-09T18:23:59.352Z,3.70
2023-01-09T18:26:42.301Z,3.08
2023-01-09T18:29:11.594Z,3.50
2023-01-09T18:31:38.563Z,1.42
2023-01-09T18:34:07.379Z,1.52
2023-01-09T18:36:34.206Z,2.72
2023-01-09T18:39:03.179Z,2.10
2023-01-09T18:41:31.322Z,3.22
2023-01-09T18:44:00.548Z,1.90
2023-01-09T18:46:31.980Z,1.70
2023-01-09T18:49:04.445Z,1.83
2023-01-09T18:51:36.772Z,3.47
2023-01-09T18:54:04.080Z,2.85
2023-01-09T18:56:30.961Z,3.40
2023-01-09T18:58:58.463Z,2.80
2023-01-09T19:01:27.911Z,2.60
2023-01-09T19:03:59.773Z,3.10
2023-01-09T19:06:28.308Z,3.17
2023-01-09T19:08:56.786Z,2.80
2023-01-09T19:11:27.467Z,4.03
2023-01-09T19:13:56.406Z,8.48
2023-01-09T19:16:23.435Z,3.30
2023-01-09T19:18:50.362Z,3.38
2023-01-09T19:21:20.549Z,3.90
2023-01-09T19:23:48.449Z,4.10
2023-01-09T19:26:20.586Z,3.70
2023-01-09T19:28:47.959Z,4.63
2023-01-09T19:31:14.931Z,4.57
2023-01-09T19:33:42.467Z,4.78
2023-01-09T19:36:10.229Z,4.60
2023-01-09T19:38:37.102Z,5.40
2023-01-09T19:41:17.834Z,5.85
2023-01-09T19:43:45.653Z,11.60
2023-01-09T19:46:18.606Z,6.85
2023-01-09T19:48:45.882Z,7.93
2023-01-09T19:51:13.802Z,19.45
2023-01-09T19:53:40.608Z,8.25
2023-01-09T19:56:15.649Z,6.50
2023-01-09T19:58:43.682Z,11.18
2023-01-09T20:01:14.913Z,11.02
2023-01-09T20:03:46.852Z,7.70
2023-01-09T20:06:19.050Z,7.45
2023-01-09T20:08:47.805Z,6.45
2023-01-09T20:11:15.672Z,7.78
2023-01-09T20:13:42.937Z,26.58
2023-01-09T20:16:19.672Z,10.10
2023-01-09T20:18:47.267Z,6.63
2023-01-09T20:21:21.673Z,5.93
2023-01-09T20:23:49.497Z,6.30
2023-01-09T20:26:17.177Z,6.55
2023-01-09T20:28:45.013Z,6.75
2023-01-09T20:31:13.572Z,5.47
2023-01-09T20:33:40.888Z,6.90
2023-01-09T20:36:09.950Z,6.38
2023-01-09T20:38:38.894Z,5.18
2023-01-09T20:41:23.119Z,4.78
2023-01-09T20:43:57.820Z,4.38
2023-01-09T20:46:29.813Z,4.28
2023-01-09T20:48:58.580Z,3.10
2023-01-09T20:51:28.650Z,4.20
2023-01-09T20:53:58.568Z,4.20
2023-01-09T20:56:32.741Z,3.30
2023-01-09T20:59:00.593Z,3.55
2023-01-09T21:01:28.446Z,3.55
2023-01-09T21:03:58.474Z,3.17
2023-01-09T21:06:27.747Z,3.25
2023-01-09T21:08:54.634Z,4.07
2023-01-09T21:11:22.229Z,3.28
2023-01-09T21:13:49.917Z,3.45
2023-01-09T21:16:20.153Z,3.22
2023-01-09T21:18:48.036Z,3.22
2023-01-09T21:21:21.424Z,3.67
2023-01-09T21:23:53.656Z,3.30
2023-01-09T21:26:24.485Z,3.78
2023-01-09T21:28:54.975Z,3.92
2023-01-09T21:31:33.209Z,3.55
2023-01-09T21:34:05.930Z,4.00
2023-01-09T21:36:32.942Z,3.42
2023-01-09T21:39:00.222Z,3.33
2023-01-09T21:41:46.899Z,2.60
2023-01-09T21:44:33.129Z,3.28
2023-01-09T21:47:01.334Z,3.20
2023-01-09T21:49:31.615Z,3.53
2023-01-09T21:51:58.780Z,3.17
2023-01-09T21:54:33.224Z,3.15
2023-01-09T21:57:00.797Z,3.13
2023-01-09T21:59:29.164Z,3.92
2023-01-09T22:01:56.417Z,3.40
2023-01-09T22:04:29.138Z,4.18
2023-01-09T22:06:56.592Z,3.55
2023-01-09T22:09:23.408Z,3.65
2023-01-09T22:11:50.116Z,3.55
2023-01-09T22:14:18.463Z,3.60
2023-01-09T22:16:45.796Z,3.92
2023-01-09T22:19:13.765Z,4.60
2023-01-09T22:21:40.453Z,3.72
2023-01-09T22:24:07.727Z,3.63
2023-01-09T22:26:35.409Z,4.07
2023-01-09T22:29:02.161Z,4.20
2023-01-09T22:31:29.558Z,4.50
2023-01-09T22:34:02.498Z,4.40
2023-01-09T22:36:31.106Z,4.27
2023-01-09T22:38:59.655Z,3.08
2023-01-09T22:41:31.867Z,4.00
2023-01-09T22:43:59.231Z,3.00
2023-01-09T22:46:26.597Z,3.33
2023-01-09T22:48:54.581Z,5.07
2023-01-09T22:51:21.831Z,3.53
2023-01-09T22:53:50.203Z,2.83
2023-01-09T22:56:19.727Z,3.85
2023-01-09T22:58:51.726Z,3.45
2023-01-09T23:01:19.425Z,3.67
2023-01-09T23:03:47.101Z,3.03
2023-01-09T23:06:16.893Z,3.72
2023-01-09T23:08:44.443Z,3.13
2023-01-09T23:11:18.015Z,3.10
2023-01-09T23:13:44.889Z,3.33
2023-01-09T23:16:11.801Z,2.45
2023-01-09T23:18:38.571Z,3.38
2023-01-09T23:21:06.693Z,3.75
2023-01-09T23:23:33.354Z,3.65
2023-01-09T23:26:04.854Z,3.30
2023-01-09T23:28:34.494Z,3.25
2023-01-09T23:31:01.239Z,3.75
2023-01-09T23:33:27.950Z,2.90
2023-01-09T23:35:54.701Z,2.50
2023-01-09T23:38:21.621Z,2.42
2023-01-09T23:40:48.291Z,2.55
2023-01-09T23:43:15.409Z,2.70
2023-01-09T23:45:45.285Z,2.40
2023-01-09T23:48:15.129Z,2.75
2023-01-09T23:50:53.398Z,2.47
2023-01-09T23:53:22.141Z,2.33
2023-01-09T23:55:49.865Z,1.90
2023-01-09T23:58:16.975Z,2.10
